createdAt,value
2019-05-18T00:04:21.359Z,67.96
2019-05-18T00:09:22.868Z,68.32
2019-05-18T00:14:24.401Z,67.37
2019-05-18T00:19:25.940Z,68.48
2019-05-18T00:24:27.539Z,68.96
2019-05-18T00:29:29.067Z,69.97
2019-05-18T00:34:30.446Z,69.34
2019-05-18T00:39:31.912Z,69.58
2019-05-18T00:44:33.385Z,68.78
2019-05-18T00:49:34.906Z,69.31
2019-05-18T00:54:36.312Z,69.10
2019-05-18T00:59:37.810Z,68.56
2019-05-18T01:04:39.339Z,68.60
2019-05-18T01:09:40.858Z,68.30
2019-05-18T01:14:42.385Z,68.64
2019-05-18T01:19:43.918Z,69.48
2019-05-18T01:24:45.224Z,70.65
2019-05-18T01:29:46.575Z,70.05
2019-05-18T01:34:47.997Z,70.76
2019-05-18T01:39:49.504Z,72.25
2019-05-18T01:44:51.417Z,72.92
2019-05-18T01:49:52.832Z,73.32
2019-05-18T01:54:54.324Z,73.56
2019-05-18T01:59:55.741Z,73.46
2019-05-18T02:04:57.269Z,73.20
2019-05-18T02:09:58.753Z,73.80
2019-05-18T02:15:00.286Z,73.89
2019-05-18T02:20:01.918Z,74.22
2019-05-18T02:25:03.641Z,74.54
2019-05-18T02:30:05.486Z,74.56
2019-05-18T02:35:06.882Z,74.66
2019-05-18T02:40:08.441Z,75.01
2019-05-18T02:45:09.959Z,75.57
2019-05-18T02:50:11.476Z,75.58
2019-05-18T02:55:12.954Z,75.47
2019-05-18T03:00:14.828Z,75.90
2019-05-18T03:05:16.354Z,76.11
2019-05-18T03:10:17.641Z,75.47
2019-05-18T03:15:19.190Z,75.17
2019-05-18T03:20:20.820Z,75.49
2019-05-18T03:25:22.358Z,75.98
2019-05-18T03:30:23.848Z,76.04
2019-05-18T03:35:25.237Z,76.80
2019-05-18T03:40:26.752Z,76.00
2019-05-18T03:45:28.331Z,76.96
2019-05-18T03:50:29.904Z,75.56
2019-05-18T03:55:31.410Z,76.23
2019-05-18T04:00:32.972Z,76.21
2019-05-18T04:05:34.512Z,76.99
2019-05-18T04:10:36.041Z,76.45
2019-05-18T04:15:37.490Z,75.55
2019-05-18T04:20:38.926Z,75.50
2019-05-18T04:25:43.745Z,77.23
2019-05-18T04:30:43.958Z,77.58
2019-05-18T04:35:45.479Z,77.26
2019-05-18T04:40:46.984Z,76.50
2019-05-18T04:45:48.618Z,75.27
2019-05-18T04:50:50.168Z,73.99
2019-05-18T04:55:51.659Z,74.32
2019-05-18T05:00:53.198Z,73.73
2019-05-18T05:05:54.760Z,74.15
2019-05-18T05:10:56.291Z,74.03
2019-05-18T05:15:57.811Z,74.39
2019-05-18T05:20:59.356Z,73.74
2019-05-18T05:26:01.058Z,73.61
2019-05-18T05:31:02.528Z,72.98
2019-05-18T05:36:04.082Z,72.52
2019-05-18T05:41:05.634Z,71.67
2019-05-18T05:46:07.090Z,71.17
2019-05-18T05:51:08.448Z,70.61
2019-05-18T05:56:10.121Z,70.17
2019-05-18T06:01:11.767Z,70.15
2019-05-18T06:06:13.436Z,69.92
2019-05-18T06:11:15.004Z,70.08
2019-05-18T06:16:16.508Z,70.21
2019-05-18T06:21:18.104Z,70.94
2019-05-18T06:26:19.668Z,70.09
2019-05-18T06:31:23.086Z,71.35
2019-05-18T06:36:24.634Z,70.27
2019-05-18T06:41:26.182Z,70.68
2019-05-18T06:51:42.891Z,70.65
2019-05-18T06:56:44.392Z,69.99
2019-05-18T07:01:45.938Z,69.35
2019-05-18T07:06:47.352Z,70.12
2019-05-18T07:11:49.034Z,69.95
2019-05-18T07:16:50.528Z,69.83
2019-05-18T07:21:52.088Z,69.02
2019-05-18T07:26:53.530Z,67.23
2019-05-18T07:31:54.980Z,65.88
2019-05-18T07:36:56.558Z,63.75
2019-05-18T07:41:58.062Z,62.28
2019-05-18T07:46:59.568Z,60.71
2019-05-18T07:52:01.125Z,61.33
2019-05-18T07:57:02.705Z,59.72
2019-05-18T08:02:04.173Z,59.02
2019-05-18T08:07:05.799Z,57.85
2019-05-18T08:12:07.385Z,54.78
2019-05-18T08:17:08.900Z,54.06
2019-05-18T08:22:10.458Z,55.20
2019-05-18T08:27:11.991Z,56.65
2019-05-18T08:32:13.474Z,55.54
2019-05-18T08:37:14.988Z,55.18
2019-05-18T08:42:16.596Z,52.79
2019-05-18T08:47:18.233Z,54.24
2019-05-18T08:52:19.674Z,53.52
2019-05-18T08:57:21.216Z,52.51
2019-05-18T09:02:22.719Z,52.51
2019-05-18T09:07:24.279Z,51.71
2019-05-18T09:12:25.747Z,50.70
2019-05-18T09:17:27.314Z,49.73
2019-05-18T09:22:28.826Z,48.05
2019-05-18T09:27:30.387Z,47.68
2019-05-18T09:32:31.779Z,47.77
2019-05-18T09:37:33.322Z,47.46
2019-05-18T09:42:34.853Z,46.57
2019-05-18T09:47:36.435Z,45.43
2019-05-18T09:52:46.185Z,44.23
2019-05-18T09:57:41.368Z,44.55
2019-05-18T10:02:42.797Z,44.58
2019-05-18T10:07:44.232Z,43.47
2019-05-18T10:12:45.758Z,42.28
2019-05-18T10:17:47.307Z,42.69
2019-05-18T10:22:59.046Z,40.51
2019-05-18T10:27:52.282Z,41.79
2019-05-18T10:32:53.679Z,40.27
2019-05-18T10:37:55.192Z,40.32
2019-05-18T10:42:56.696Z,39.52
2019-05-18T10:47:59.379Z,39.92
2019-05-18T10:53:00.918Z,41.34
2019-05-18T10:58:02.435Z,39.88
2019-05-18T11:03:03.873Z,39.91
2019-05-18T11:08:05.417Z,37.48
2019-05-18T11:13:06.954Z,37.34
2019-05-18T11:18:08.577Z,37.43
2019-05-18T11:23:10.154Z,37.77
2019-05-18T11:28:11.655Z,39.11
2019-05-18T11:33:13.184Z,38.38
2019-05-18T11:38:14.701Z,39.52
2019-05-18T11:43:16.271Z,38.55
2019-05-18T11:48:17.763Z,38.33
2019-05-18T11:53:19.293Z,38.61
2019-05-18T11:58:20.803Z,38.32
2019-05-18T12:03:22.355Z,38.17
2019-05-18T12:08:23.875Z,37.06
2019-05-18T12:13:25.555Z,38.59
2019-05-18T12:18:27.107Z,38.24
2019-05-18T12:23:28.657Z,37.23
2019-05-18T12:28:31.566Z,37.08
2019-05-18T12:33:33.140Z,36.80
2019-05-18T12:38:34.630Z,36.68
2019-05-18T12:43:36.170Z,37.66
2019-05-18T12:48:37.565Z,37.39
2019-05-18T12:53:39.055Z,37.46
2019-05-18T12:58:40.595Z,37.35
2019-05-18T13:03:42.149Z,36.50
2019-05-18T13:08:43.669Z,35.45
2019-05-18T13:13:45.351Z,35.39
2019-05-18T13:18:46.897Z,37.28
2019-05-18T13:23:48.302Z,36.20
2019-05-18T13:28:49.837Z,35.39
2019-05-18T13:33:51.502Z,34.63
2019-05-18T13:38:52.787Z,35.15
2019-05-18T13:43:54.051Z,32.62
2019-05-18T13:48:55.441Z,33.36
2019-05-18T13:53:56.669Z,34.77
2019-05-18T13:58:58.269Z,33.20
2019-05-18T14:03:59.730Z,32.29
2019-05-18T14:09:01.012Z,32.13
2019-05-18T14:14:02.657Z,31.74
2019-05-18T14:19:04.257Z,30.81
2019-05-18T14:24:05.741Z,31.76
2019-05-18T14:29:07.322Z,31.12
2019-05-18T14:34:08.880Z,32.60
2019-05-18T14:39:10.398Z,32.24
2019-05-18T14:44:12.062Z,32.68
2019-05-18T14:49:13.383Z,34.35
2019-05-18T14:54:14.681Z,33.75
2019-05-18T14:59:16.256Z,36.12
2019-05-18T15:04:17.490Z,35.29
2019-05-18T15:09:19.140Z,35.80
2019-05-18T15:14:20.689Z,35.36
2019-05-18T15:19:22.203Z,35.55
2019-05-18T15:24:23.834Z,35.83
2019-05-18T15:29:25.527Z,36.19
2019-05-18T15:34:27.155Z,35.26
2019-05-18T15:39:28.566Z,35.59
2019-05-18T15:44:30.142Z,35.71
2019-05-18T15:49:31.642Z,34.94
2019-05-18T15:54:36.147Z,34.47
2019-05-18T15:59:37.359Z,33.97
2019-05-18T16:04:38.610Z,33.94
2019-05-18T16:09:39.983Z,36.31
2019-05-18T16:14:41.376Z,33.30
2019-05-18T16:19:42.629Z,34.04
2019-05-18T16:24:43.891Z,34.27
2019-05-18T16:29:45.530Z,34.69
2019-05-18T16:34:47.077Z,36.14
2019-05-18T16:39:48.641Z,39.25
2019-05-18T16:44:50.177Z,43.06
2019-05-18T16:49:51.475Z,43.06
2019-05-18T16:54:53.054Z,43.55
2019-05-18T16:59:54.618Z,44.94
2019-05-18T17:04:56.256Z,45.29
2019-05-18T17:09:58.152Z,45.52
2019-05-18T17:14:59.626Z,45.93
2019-05-18T17:20:01.259Z,46.21
2019-05-18T17:25:02.939Z,46.09
2019-05-18T17:30:04.658Z,46.32
2019-05-18T17:35:06.156Z,45.25
2019-05-18T17:40:07.693Z,45.83
2019-05-18T17:45:09.127Z,46.08
2019-05-18T17:50:10.697Z,46.28
2019-05-18T17:55:12.205Z,47.22
2019-05-18T18:00:13.863Z,46.98
2019-05-18T18:05:15.380Z,47.32
2019-05-18T18:10:16.977Z,48.00
2019-05-18T18:15:18.428Z,49.19
2019-05-18T18:20:21.178Z,50.15
2019-05-18T18:25:22.779Z,50.39
2019-05-18T18:30:24.540Z,51.28
2019-05-18T18:35:26.085Z,52.09
2019-05-18T18:40:27.525Z,52.85
2019-05-18T18:45:29.129Z,53.21
2019-05-18T18:50:30.617Z,52.37
2019-05-18T18:55:32.237Z,52.92
2019-05-18T19:00:33.932Z,53.48
2019-05-18T19:05:35.584Z,53.82
2019-05-18T19:10:37.107Z,55.11
2019-05-18T19:15:38.610Z,56.37
2019-05-18T19:20:40.180Z,58.83
2019-05-18T19:25:41.738Z,59.51
2019-05-18T19:30:43.334Z,60.37
2019-05-18T19:35:44.756Z,61.07
2019-05-18T19:40:46.298Z,61.41
2019-05-18T19:45:47.849Z,62.19
2019-05-18T19:50:49.519Z,63.01
2019-05-18T19:55:51.030Z,63.97
2019-05-18T20:00:52.642Z,64.82
2019-05-18T20:05:54.260Z,65.42
2019-05-18T20:10:55.979Z,65.30
2019-05-18T20:15:57.478Z,65.61
2019-05-18T20:21:00.057Z,65.83
2019-05-18T20:26:01.626Z,65.49
2019-05-18T20:31:03.500Z,65.75
2019-05-18T20:36:05.166Z,66.87
2019-05-18T20:41:07.339Z,66.93
2019-05-18T20:46:08.879Z,67.12
2019-05-18T20:51:10.269Z,67.23
2019-05-18T20:56:11.847Z,66.75
2019-05-18T21:01:13.375Z,67.05
2019-05-18T21:06:15.327Z,67.28
2019-05-18T21:11:16.835Z,67.41
2019-05-18T21:16:18.463Z,67.41
2019-05-18T21:21:25.086Z,67.76
2019-05-18T21:26:23.627Z,67.41
2019-05-18T21:31:25.276Z,66.59
2019-05-18T21:36:26.789Z,67.36
2019-05-18T21:41:28.315Z,68.39
2019-05-18T21:46:29.813Z,67.19
2019-05-18T21:51:31.382Z,67.25
2019-05-18T21:56:32.914Z,67.36
2019-05-18T22:01:34.445Z,67.42
2019-05-18T22:06:35.981Z,68.07
2019-05-18T22:11:37.586Z,68.51
2019-05-18T22:16:39.114Z,68.74
2019-05-18T22:21:40.689Z,69.03
2019-05-18T22:26:42.091Z,68.40
2019-05-18T22:31:43.629Z,67.57
2019-05-18T22:36:45.069Z,68.69
2019-05-18T22:41:46.603Z,68.71
2019-05-18T22:46:48.028Z,69.03
2019-05-18T22:51:49.542Z,69.83
2019-05-18T22:56:51.192Z,69.46
2019-05-18T23:01:52.646Z,69.04
2019-05-18T23:06:54.177Z,69.45
2019-05-18T23:11:55.629Z,69.44
2019-05-18T23:16:57.214Z,69.06
2019-05-18T23:21:58.723Z,69.15
2019-05-18T23:27:00.054Z,69.25
2019-05-18T23:32:01.571Z,69.21
2019-05-18T23:37:03.095Z,69.12
2019-05-18T23:42:04.685Z,69.14
2019-05-18T23:47:06.223Z,69.44
2019-05-18T23:52:07.748Z,69.55
2019-05-18T23:57:09.283Z,69.37
